sensor_id;sensor_type;location;lat;lon;timestamp;P1;durP1;ratioP1;P2;durP2;ratioP2
15102;SDS011;7652;53.584;9.998;2023-01-16T00:02:04;3.70;;;2.70;;
15102;SDS011;7652;53.584;9.998;2023-01-16T00:05:07;2.60;;;2.40;;
15102;SDS011;7652;53.584;9.998;2023-01-16T00:08:12;3.20;;;2.77;;
15102;SDS011;7652;53.584;9.998;2023-01-16T00:11:15;2.83;;;2.63;;
15102;SDS011;7652;53.584;9.998;2023-01-16T00:14:18;4.20;;;2.60;;
15102;SDS011;7652;53.584;9.998;2023-01-16T00:17:21;3.63;;;3.33;;
15102;SDS011;7652;53.584;9.998;2023-01-16T00:20:24;3.73;;;2.90;;
15102;SDS011;7652;53.584;9.998;2023-01-16T00:23:29;2.87;;;2.57;;
15102;SDS011;7652;53.584;9.998;2023-01-16T00:26:32;4.67;;;3.17;;
15102;SDS011;7652;53.584;9.998;2023-01-16T00:29:35;3.27;;;2.67;;
15102;SDS011;7652;53.584;9.998;2023-01-16T00:32:38;6.00;;;3.00;;
15102;SDS011;7652;53.584;9.998;2023-01-16T00:35:41;4.10;;;2.80;;
15102;SDS011;7652;53.584;9.998;2023-01-16T00:38:45;3.93;;;3.33;;
15102;SDS011;7652;53.584;9.998;2023-01-16T00:41:49;4.00;;;2.60;;
15102;SDS011;7652;53.584;9.998;2023-01-16T00:44:51;4.97;;;2.80;;
15102;SDS011;7652;53.584;9.998;2023-01-16T00:47:54;2.90;;;2.67;;
15102;SDS011;7652;53.584;9.998;2023-01-16T00:50:57;4.10;;;2.80;;
15102;SDS011;7652;53.584;9.998;2023-01-16T00:54:02;3.13;;;2.50;;
15102;SDS011;7652;53.584;9.998;2023-01-16T00:57:05;2.97;;;2.20;;
15102;SDS011;7652;53.584;9.998;2023-01-16T01:00:09;3.53;;;2.33;;
15102;SDS011;7652;53.584;9.998;2023-01-16T01:03:12;4.27;;;2.07;;
15102;SDS011;7652;53.584;9.998;2023-01-16T01:06:15;4.70;;;2.30;;
15102;SDS011;7652;53.584;9.998;2023-01-16T01:09:20;3.37;;;1.80;;
15102;SDS011;7652;53.584;9.998;2023-01-16T01:12:23;4.83;;;1.73;;
15102;SDS011;7652;53.584;9.998;2023-01-16T01:15:26;5.07;;;2.50;;
15102;SDS011;7652;53.584;9.998;2023-01-16T01:18:29;2.60;;;2.03;;
15102;SDS011;7652;53.584;9.998;2023-01-16T01:21:32;6.07;;;2.40;;
15102;SDS011;7652;53.584;9.998;2023-01-16T01:24:37;2.30;;;1.93;;
15102;SDS011;7652;53.584;9.998;2023-01-16T01:27:40;4.13;;;2.30;;
15102;SDS011;7652;53.584;9.998;2023-01-16T01:30:43;3.43;;;2.13;;
15102;SDS011;7652;53.584;9.998;2023-01-16T01:33:46;3.27;;;1.90;;
15102;SDS011;7652;53.584;9.998;2023-01-16T01:36:49;4.70;;;2.20;;
15102;SDS011;7652;53.584;9.998;2023-01-16T01:39:53;4.07;;;2.10;;
15102;SDS011;7652;53.584;9.998;2023-01-16T01:42:56;2.53;;;2.17;;
15102;SDS011;7652;53.584;9.998;2023-01-16T01:45:59;2.50;;;2.30;;
15102;SDS011;7652;53.584;9.998;2023-01-16T01:49:04;3.80;;;2.00;;
15102;SDS011;7652;53.584;9.998;2023-01-16T01:52:13;3.17;;;1.90;;
15102;SDS011;7652;53.584;9.998;2023-01-16T01:55:17;5.07;;;2.43;;
15102;SDS011;7652;53.584;9.998;2023-01-16T01:58:23;3.07;;;1.63;;
15102;SDS011;7652;53.584;9.998;2023-01-16T02:01:28;4.50;;;1.67;;
15102;SDS011;7652;53.584;9.998;2023-01-16T02:04:34;3.20;;;1.50;;
15102;SDS011;7652;53.584;9.998;2023-01-16T02:07:40;4.77;;;1.43;;
15102;SDS011;7652;53.584;9.998;2023-01-16T02:10:45;3.10;;;1.27;;
15102;SDS011;7652;53.584;9.998;2023-01-16T02:13:53;1.63;;;1.20;;
15102;SDS011;7652;53.584;9.998;2023-01-16T02:16:59;1.70;;;1.17;;
15102;SDS011;7652;53.584;9.998;2023-01-16T02:20:24;2.97;;;1.23;;
15102;SDS011;7652;53.584;9.998;2023-01-16T02:27:09;3.50;;;1.10;;
15102;SDS011;7652;53.584;9.998;2023-01-16T02:34:09;1.90;;;1.20;;
15102;SDS011;7652;53.584;9.998;2023-01-16T02:37:24;3.53;;;1.03;;
15102;SDS011;7652;53.584;9.998;2023-01-16T02:40:37;2.97;;;0.83;;
15102;SDS011;7652;53.584;9.998;2023-01-16T02:43:46;4.37;;;1.20;;
15102;SDS011;7652;53.584;9.998;2023-01-16T02:46:58;3.70;;;1.23;;
15102;SDS011;7652;53.584;9.998;2023-01-16T02:50:13;2.03;;;1.10;;
15102;SDS011;7652;53.584;9.998;2023-01-16T02:53:25;3.47;;;1.20;;
15102;SDS011;7652;53.584;9.998;2023-01-16T02:56:33;1.20;;;0.93;;
15102;SDS011;7652;53.584;9.998;2023-01-16T02:59:43;2.67;;;1.10;;
15102;SDS011;7652;53.584;9.998;2023-01-16T03:02:46;2.57;;;1.13;;
15102;SDS011;7652;53.584;9.998;2023-01-16T03:05:51;2.43;;;1.00;;
15102;SDS011;7652;53.584;9.998;2023-01-16T03:09:03;2.97;;;0.90;;
15102;SDS011;7652;53.584;9.998;2023-01-16T03:12:21;1.60;;;1.00;;
15102;SDS011;7652;53.584;9.998;2023-01-16T03:15:33;2.10;;;0.80;;
15102;SDS011;7652;53.584;9.998;2023-01-16T03:18:44;2.97;;;1.30;;
15102;SDS011;7652;53.584;9.998;2023-01-16T03:22:05;0.83;;;0.83;;
15102;SDS011;7652;53.584;9.998;2023-01-16T03:25:19;2.77;;;1.07;;
15102;SDS011;7652;53.584;9.998;2023-01-16T03:28:30;2.77;;;1.00;;
15102;SDS011;7652;53.584;9.998;2023-01-16T03:31:39;1.30;;;0.87;;
15102;SDS011;7652;53.584;9.998;2023-01-16T03:34:48;1.53;;;0.87;;
15102;SDS011;7652;53.584;9.998;2023-01-16T03:37:57;1.57;;;1.00;;
15102;SDS011;7652;53.584;9.998;2023-01-16T03:41:05;2.53;;;0.90;;
15102;SDS011;7652;53.584;9.998;2023-01-16T03:44:13;2.50;;;1.00;;
15102;SDS011;7652;53.584;9.998;2023-01-16T03:47:27;1.43;;;0.80;;
15102;SDS011;7652;53.584;9.998;2023-01-16T03:50:37;1.07;;;0.73;;
15102;SDS011;7652;53.584;9.998;2023-01-16T03:53:46;0.93;;;0.73;;
15102;SDS011;7652;53.584;9.998;2023-01-16T03:56:56;2.73;;;0.90;;
15102;SDS011;7652;53.584;9.998;2023-01-16T04:00:07;2.30;;;1.00;;
15102;SDS011;7652;53.584;9.998;2023-01-16T04:03:12;3.40;;;1.10;;
15102;SDS011;7652;53.584;9.998;2023-01-16T04:06:22;2.97;;;0.97;;
15102;SDS011;7652;53.584;9.998;2023-01-16T04:09:35;1.33;;;1.00;;
15102;SDS011;7652;53.584;9.998;2023-01-16T04:12:44;1.67;;;0.77;;
15102;SDS011;7652;53.584;9.998;2023-01-16T04:15:52;2.20;;;1.00;;
15102;SDS011;7652;53.584;9.998;2023-01-16T04:18:58;1.20;;;0.73;;
15102;SDS011;7652;53.584;9.998;2023-01-16T04:22:04;1.67;;;0.87;;
15102;SDS011;7652;53.584;9.998;2023-01-16T04:25:10;2.23;;;1.03;;
15102;SDS011;7652;53.584;9.998;2023-01-16T04:28:13;2.43;;;0.90;;
15102;SDS011;7652;53.584;9.998;2023-01-16T04:31:16;3.87;;;0.83;;
15102;SDS011;7652;53.584;9.998;2023-01-16T04:34:19;1.40;;;0.90;;
15102;SDS011;7652;53.584;9.998;2023-01-16T04:37:22;2.20;;;0.87;;
15102;SDS011;7652;53.584;9.998;2023-01-16T04:40:26;0.77;;;0.60;;
15102;SDS011;7652;53.584;9.998;2023-01-16T04:43:29;2.93;;;0.90;;
15102;SDS011;7652;53.584;9.998;2023-01-16T04:46:32;4.00;;;0.97;;
15102;SDS011;7652;53.584;9.998;2023-01-16T04:49:36;0.67;;;0.67;;
15102;SDS011;7652;53.584;9.998;2023-01-16T04:52:39;2.40;;;0.83;;
15102;SDS011;7652;53.584;9.998;2023-01-16T04:55:44;3.47;;;0.90;;
15102;SDS011;7652;53.584;9.998;2023-01-16T04:58:47;2.73;;;1.00;;
15102;SDS011;7652;53.584;9.998;2023-01-16T05:01:51;1.80;;;0.70;;
15102;SDS011;7652;53.584;9.998;2023-01-16T05:04:54;2.60;;;0.70;;
15102;SDS011;7652;53.584;9.998;2023-01-16T05:07:57;1.83;;;0.60;;
15102;SDS011;7652;53.584;9.998;2023-01-16T05:11:19;2.90;;;0.63;;
15102;SDS011;7652;53.584;9.998;2023-01-16T05:14:22;2.73;;;0.63;;
15102;SDS011;7652;53.584;9.998;2023-01-16T05:17:25;1.53;;;0.83;;
15102;SDS011;7652;53.584;9.998;2023-01-16T05:20:28;0.73;;;0.63;;
15102;SDS011;7652;53.584;9.998;2023-01-16T05:23:31;2.20;;;0.80;;
15102;SDS011;7652;53.584;9.998;2023-01-16T05:26:37;1.63;;;0.80;;
15102;SDS011;7652;53.584;9.998;2023-01-16T05:29:40;1.20;;;0.80;;
15102;SDS011;7652;53.584;9.998;2023-01-16T05:32:43;2.10;;;0.80;;
15102;SDS011;7652;53.584;9.998;2023-01-16T05:35:46;1.40;;;0.70;;
15102;SDS011;7652;53.584;9.998;2023-01-16T05:38:50;2.93;;;0.83;;
15102;SDS011;7652;53.584;9.998;2023-01-16T05:41:54;5.07;;;0.83;;
15102;SDS011;7652;53.584;9.998;2023-01-16T05:44:57;1.37;;;0.60;;
15102;SDS011;7652;53.584;9.998;2023-01-16T05:48:00;1.07;;;0.60;;
15102;SDS011;7652;53.584;9.998;2023-01-16T05:51:04;1.40;;;0.60;;
15102;SDS011;7652;53.584;9.998;2023-01-16T05:54:09;0.87;;;0.60;;
15102;SDS011;7652;53.584;9.998;2023-01-16T05:57:14;3.03;;;0.90;;
15102;SDS011;7652;53.584;9.998;2023-01-16T06:00:17;0.97;;;0.50;;
15102;SDS011;7652;53.584;9.998;2023-01-16T06:03:23;2.47;;;0.70;;
15102;SDS011;7652;53.584;9.998;2023-01-16T06:06:26;3.17;;;0.73;;
15102;SDS011;7652;53.584;9.998;2023-01-16T06:09:29;1.43;;;0.87;;
15102;SDS011;7652;53.584;9.998;2023-01-16T06:12:33;0.73;;;0.60;;
15102;SDS011;7652;53.584;9.998;2023-01-16T06:15:36;1.43;;;0.53;;
15102;SDS011;7652;53.584;9.998;2023-01-16T06:18:41;1.00;;;0.67;;
15102;SDS011;7652;53.584;9.998;2023-01-16T06:21:44;0.80;;;0.57;;
15102;SDS011;7652;53.584;9.998;2023-01-16T06:24:47;2.53;;;0.60;;
15102;SDS011;7652;53.584;9.998;2023-01-16T06:27:51;3.47;;;0.77;;
15102;SDS011;7652;53.584;9.998;2023-01-16T06:30:56;3.33;;;0.60;;
15102;SDS011;7652;53.584;9.998;2023-01-16T06:33:59;1.37;;;0.60;;
15102;SDS011;7652;53.584;9.998;2023-01-16T06:37:02;1.53;;;0.57;;
15102;SDS011;7652;53.584;9.998;2023-01-16T06:40:06;2.00;;;0.70;;
15102;SDS011;7652;53.584;9.998;2023-01-16T06:43:14;2.07;;;0.57;;
15102;SDS011;7652;53.584;9.998;2023-01-16T06:46:17;2.17;;;0.90;;
15102;SDS011;7652;53.584;9.998;2023-01-16T06:49:21;1.97;;;0.80;;
15102;SDS011;7652;53.584;9.998;2023-01-16T06:52:24;1.30;;;0.50;;
15102;SDS011;7652;53.584;9.998;2023-01-16T06:55:27;1.70;;;0.50;;
15102;SDS011;7652;53.584;9.998;2023-01-16T06:58:31;2.67;;;0.77;;
15102;SDS011;7652;53.584;9.998;2023-01-16T07:01:35;3.60;;;0.90;;
15102;SDS011;7652;53.584;9.998;2023-01-16T07:04:38;2.67;;;0.80;;
15102;SDS011;7652;53.584;9.998;2023-01-16T07:07:41;2.47;;;0.50;;
15102;SDS011;7652;53.584;9.998;2023-01-16T07:10:44;0.57;;;0.57;;
15102;SDS011;7652;53.584;9.998;2023-01-16T07:13:48;2.40;;;0.60;;
15102;SDS011;7652;53.584;9.998;2023-01-16T07:17:11;2.93;;;0.83;;
15102;SDS011;7652;53.584;9.998;2023-01-16T07:20:34;1.37;;;0.70;;
15102;SDS011;7652;53.584;9.998;2023-01-16T07:23:56;1.87;;;1.10;;
15102;SDS011;7652;53.584;9.998;2023-01-16T07:27:03;1.37;;;0.87;;
15102;SDS011;7652;53.584;9.998;2023-01-16T07:30:12;0.87;;;0.70;;
15102;SDS011;7652;53.584;9.998;2023-01-16T07:33:15;1.83;;;0.60;;
15102;SDS011;7652;53.584;9.998;2023-01-16T07:36:19;1.43;;;0.80;;
15102;SDS011;7652;53.584;9.998;2023-01-16T07:39:22;3.23;;;0.63;;
15102;SDS011;7652;53.584;9.998;2023-01-16T07:42:25;2.20;;;0.60;;
15102;SDS011;7652;53.584;9.998;2023-01-16T07:45:29;1.47;;;0.70;;
15102;SDS011;7652;53.584;9.998;2023-01-16T07:48:32;0.73;;;0.50;;
15102;SDS011;7652;53.584;9.998;2023-01-16T07:51:35;0.70;;;0.53;;
15102;SDS011;7652;53.584;9.998;2023-01-16T07:54:40;1.53;;;0.80;;
15102;SDS011;7652;53.584;9.998;2023-01-16T07:57:43;2.70;;;0.70;;
15102;SDS011;7652;53.584;9.998;2023-01-16T08:00:48;1.77;;;0.70;;
15102;SDS011;7652;53.584;9.998;2023-01-16T08:03:51;2.23;;;0.80;;
15102;SDS011;7652;53.584;9.998;2023-01-16T08:06:54;1.67;;;1.00;;
15102;SDS011;7652;53.584;9.998;2023-01-16T08:09:57;2.17;;;0.90;;
15102;SDS011;7652;53.584;9.998;2023-01-16T08:13:00;1.97;;;0.90;;
15102;SDS011;7652;53.584;9.998;2023-01-16T08:16:05;0.63;;;0.43;;
15102;SDS011;7652;53.584;9.998;2023-01-16T08:19:08;1.80;;;0.70;;
15102;SDS011;7652;53.584;9.998;2023-01-16T08:22:11;2.17;;;0.87;;
15102;SDS011;7652;53.584;9.998;2023-01-16T08:25:14;1.37;;;0.70;;
15102;SDS011;7652;53.584;9.998;2023-01-16T08:28:18;3.10;;;0.87;;
15102;SDS011;7652;53.584;9.998;2023-01-16T08:31:22;2.27;;;0.63;;
15102;SDS011;7652;53.584;9.998;2023-01-16T08:34:25;2.70;;;0.80;;
15102;SDS011;7652;53.584;9.998;2023-01-16T08:37:29;2.47;;;0.80;;
15102;SDS011;7652;53.584;9.998;2023-01-16T08:40:32;1.37;;;0.63;;
15102;SDS011;7652;53.584;9.998;2023-01-16T08:43:35;3.27;;;0.90;;
15102;SDS011;7652;53.584;9.998;2023-01-16T08:46:58;2.00;;;0.70;;
15102;SDS011;7652;53.584;9.998;2023-01-16T08:50:22;0.67;;;0.60;;
15102;SDS011;7652;53.584;9.998;2023-01-16T08:53:43;1.10;;;0.70;;
15102;SDS011;7652;53.584;9.998;2023-01-16T08:56:46;4.13;;;0.70;;
15102;SDS011;7652;53.584;9.998;2023-01-16T08:59:49;4.50;;;1.00;;
15102;SDS011;7652;53.584;9.998;2023-01-16T09:02:53;1.23;;;0.73;;
15102;SDS011;7652;53.584;9.998;2023-01-16T09:05:57;5.37;;;0.70;;
15102;SDS011;7652;53.584;9.998;2023-01-16T09:09:00;2.83;;;0.93;;
15102;SDS011;7652;53.584;9.998;2023-01-16T09:12:03;1.50;;;0.63;;
15102;SDS011;7652;53.584;9.998;2023-01-16T09:15:24;2.60;;;0.80;;
15102;SDS011;7652;53.584;9.998;2023-01-16T09:18:29;1.50;;;0.63;;
15102;SDS011;7652;53.584;9.998;2023-01-16T09:21:32;2.27;;;0.70;;
15102;SDS011;7652;53.584;9.998;2023-01-16T09:24:35;2.33;;;0.70;;
15102;SDS011;7652;53.584;9.998;2023-01-16T09:27:39;2.00;;;0.90;;
15102;SDS011;7652;53.584;9.998;2023-01-16T09:30:42;1.43;;;0.50;;
15102;SDS011;7652;53.584;9.998;2023-01-16T09:33:46;2.60;;;0.73;;
15102;SDS011;7652;53.584;9.998;2023-01-16T09:36:50;2.43;;;0.67;;
15102;SDS011;7652;53.584;9.998;2023-01-16T09:39:53;1.20;;;0.50;;
15102;SDS011;7652;53.584;9.998;2023-01-16T09:42:58;4.37;;;0.70;;
15102;SDS011;7652;53.584;9.998;2023-01-16T09:46:30;1.60;;;0.60;;
15102;SDS011;7652;53.584;9.998;2023-01-16T09:49:43;0.87;;;0.60;;
15102;SDS011;7652;53.584;9.998;2023-01-16T09:52:49;1.47;;;0.70;;
15102;SDS011;7652;53.584;9.998;2023-01-16T09:56:11;1.10;;;0.70;;
15102;SDS011;7652;53.584;9.998;2023-01-16T09:59:42;1.23;;;0.90;;
15102;SDS011;7652;53.584;9.998;2023-01-16T10:02:48;1.30;;;0.70;;
15102;SDS011;7652;53.584;9.998;2023-01-16T10:05:53;3.07;;;0.63;;
15102;SDS011;7652;53.584;9.998;2023-01-16T10:09:05;1.90;;;0.67;;
15102;SDS011;7652;53.584;9.998;2023-01-16T10:12:14;0.53;;;0.40;;
15102;SDS011;7652;53.584;9.998;2023-01-16T10:15:18;3.50;;;0.70;;
15102;SDS011;7652;53.584;9.998;2023-01-16T10:18:27;0.70;;;0.40;;
15102;SDS011;7652;53.584;9.998;2023-01-16T10:21:48;2.60;;;0.80;;
15102;SDS011;7652;53.584;9.998;2023-01-16T10:25:10;2.63;;;0.80;;
15102;SDS011;7652;53.584;9.998;2023-01-16T10:28:23;2.67;;;0.50;;
15102;SDS011;7652;53.584;9.998;2023-01-16T10:31:33;3.47;;;0.80;;
15102;SDS011;7652;53.584;9.998;2023-01-16T10:34:43;2.27;;;0.90;;
15102;SDS011;7652;53.584;9.998;2023-01-16T10:37:55;0.60;;;0.60;;
15102;SDS011;7652;53.584;9.998;2023-01-16T10:41:11;1.80;;;1.00;;
15102;SDS011;7652;53.584;9.998;2023-01-16T10:44:32;3.33;;;1.10;;
15102;SDS011;7652;53.584;9.998;2023-01-16T10:47:55;2.23;;;0.87;;
15102;SDS011;7652;53.584;9.998;2023-01-16T10:51:16;2.73;;;0.90;;
15102;SDS011;7652;53.584;9.998;2023-01-16T10:54:20;0.93;;;0.50;;
15102;SDS011;7652;53.584;9.998;2023-01-16T10:57:23;1.93;;;0.87;;
15102;SDS011;7652;53.584;9.998;2023-01-16T11:00:27;2.00;;;0.83;;
15102;SDS011;7652;53.584;9.998;2023-01-16T11:03:35;1.00;;;0.67;;
15102;SDS011;7652;53.584;9.998;2023-01-16T11:06:41;1.53;;;0.90;;
15102;SDS011;7652;53.584;9.998;2023-01-16T11:09:46;1.97;;;0.70;;
15102;SDS011;7652;53.584;9.998;2023-01-16T11:12:51;1.83;;;0.90;;
15102;SDS011;7652;53.584;9.998;2023-01-16T11:16:17;3.27;;;0.97;;
15102;SDS011;7652;53.584;9.998;2023-01-16T11:19:40;1.43;;;0.73;;
15102;SDS011;7652;53.584;9.998;2023-01-16T11:22:47;2.43;;;0.70;;
15102;SDS011;7652;53.584;9.998;2023-01-16T11:26:00;1.00;;;0.70;;
15102;SDS011;7652;53.584;9.998;2023-01-16T11:29:04;3.00;;;0.87;;
15102;SDS011;7652;53.584;9.998;2023-01-16T11:32:09;3.23;;;1.00;;
15102;SDS011;7652;53.584;9.998;2023-01-16T11:35:16;2.40;;;0.87;;
15102;SDS011;7652;53.584;9.998;2023-01-16T11:38:20;3.27;;;0.90;;
15102;SDS011;7652;53.584;9.998;2023-01-16T11:41:28;3.77;;;1.10;;
15102;SDS011;7652;53.584;9.998;2023-01-16T11:44:34;2.23;;;0.93;;
15102;SDS011;7652;53.584;9.998;2023-01-16T11:47:56;1.47;;;0.70;;
15102;SDS011;7652;53.584;9.998;2023-01-16T11:51:03;2.43;;;0.90;;
15102;SDS011;7652;53.584;9.998;2023-01-16T11:54:11;2.13;;;0.90;;
15102;SDS011;7652;53.584;9.998;2023-01-16T11:57:27;3.40;;;1.20;;
15102;SDS011;7652;53.584;9.998;2023-01-16T12:00:48;1.80;;;0.87;;
15102;SDS011;7652;53.584;9.998;2023-01-16T12:04:01;3.60;;;1.00;;
15102;SDS011;7652;53.584;9.998;2023-01-16T12:07:13;1.47;;;0.70;;
15102;SDS011;7652;53.584;9.998;2023-01-16T12:10:24;2.17;;;0.50;;
15102;SDS011;7652;53.584;9.998;2023-01-16T12:13:35;2.53;;;0.87;;
15102;SDS011;7652;53.584;9.998;2023-01-16T12:17:09;1.53;;;0.70;;
15102;SDS011;7652;53.584;9.998;2023-01-16T12:20:19;0.60;;;0.60;;
15102;SDS011;7652;53.584;9.998;2023-01-16T12:27:05;0.83;;;0.47;;
15102;SDS011;7652;53.584;9.998;2023-01-16T12:30:22;0.63;;;0.60;;
15102;SDS011;7652;53.584;9.998;2023-01-16T12:33:33;2.57;;;0.80;;
15102;SDS011;7652;53.584;9.998;2023-01-16T12:36:43;1.47;;;0.80;;
15102;SDS011;7652;53.584;9.998;2023-01-16T12:40:04;2.03;;;0.80;;
15102;SDS011;7652;53.584;9.998;2023-01-16T12:43:19;1.10;;;0.83;;
15102;SDS011;7652;53.584;9.998;2023-01-16T12:46:32;1.53;;;0.90;;
15102;SDS011;7652;53.584;9.998;2023-01-16T12:49:44;1.47;;;0.90;;
15102;SDS011;7652;53.584;9.998;2023-01-16T12:53:07;2.17;;;0.70;;
15102;SDS011;7652;53.584;9.998;2023-01-16T12:56:30;1.73;;;0.70;;
15102;SDS011;7652;53.584;9.998;2023-01-16T12:59:43;2.77;;;1.20;;
15102;SDS011;7652;53.584;9.998;2023-01-16T13:02:53;0.73;;;0.53;;
15102;SDS011;7652;53.584;9.998;2023-01-16T13:05:59;0.87;;;0.73;;
15102;SDS011;7652;53.584;9.998;2023-01-16T13:09:08;1.27;;;0.83;;
15102;SDS011;7652;53.584;9.998;2023-01-16T13:12:22;1.80;;;0.63;;
15102;SDS011;7652;53.584;9.998;2023-01-16T13:16:02;3.37;;;0.70;;
15102;SDS011;7652;53.584;9.998;2023-01-16T13:19:11;1.53;;;0.90;;
15102;SDS011;7652;53.584;9.998;2023-01-16T13:22:20;0.73;;;0.60;;
15102;SDS011;7652;53.584;9.998;2023-01-16T13:25:28;0.97;;;0.70;;
15102;SDS011;7652;53.584;9.998;2023-01-16T13:28:37;1.57;;;0.90;;
15102;SDS011;7652;53.584;9.998;2023-01-16T13:31:47;1.33;;;0.60;;
15102;SDS011;7652;53.584;9.998;2023-01-16T13:34:57;0.50;;;0.50;;
15102;SDS011;7652;53.584;9.998;2023-01-16T13:38:13;0.53;;;0.50;;
15102;SDS011;7652;53.584;9.998;2023-01-16T13:41:33;1.43;;;0.90;;
15102;SDS011;7652;53.584;9.998;2023-01-16T13:44:41;3.60;;;0.73;;
15102;SDS011;7652;53.584;9.998;2023-01-16T13:48:05;2.63;;;1.03;;
15102;SDS011;7652;53.584;9.998;2023-01-16T13:51:11;0.57;;;0.57;;
15102;SDS011;7652;53.584;9.998;2023-01-16T13:54:18;0.67;;;0.63;;
15102;SDS011;7652;53.584;9.998;2023-01-16T13:57:25;0.63;;;0.50;;
15102;SDS011;7652;53.584;9.998;2023-01-16T14:00:30;1.27;;;0.80;;
15102;SDS011;7652;53.584;9.998;2023-01-16T14:03:35;4.13;;;0.80;;
15102;SDS011;7652;53.584;9.998;2023-01-16T14:06:45;0.83;;;0.50;;
15102;SDS011;7652;53.584;9.998;2023-01-16T14:13:24;1.67;;;0.87;;
15102;SDS011;7652;53.584;9.998;2023-01-16T14:16:35;1.37;;;0.80;;
15102;SDS011;7652;53.584;9.998;2023-01-16T14:19:41;1.30;;;0.80;;
15102;SDS011;7652;53.584;9.998;2023-01-16T14:22:53;2.03;;;0.90;;
15102;SDS011;7652;53.584;9.998;2023-01-16T14:26:16;3.13;;;1.13;;
15102;SDS011;7652;53.584;9.998;2023-01-16T14:29:23;0.93;;;0.70;;
15102;SDS011;7652;53.584;9.998;2023-01-16T14:32:29;2.60;;;0.90;;
15102;SDS011;7652;53.584;9.998;2023-01-16T14:35:40;2.43;;;0.90;;
15102;SDS011;7652;53.584;9.998;2023-01-16T14:38:47;1.03;;;0.70;;
15102;SDS011;7652;53.584;9.998;2023-01-16T14:41:51;1.50;;;0.87;;
15102;SDS011;7652;53.584;9.998;2023-01-16T14:45:23;2.33;;;1.00;;
15102;SDS011;7652;53.584;9.998;2023-01-16T14:48:48;3.10;;;0.53;;
15102;SDS011;7652;53.584;9.998;2023-01-16T14:52:09;0.90;;;0.73;;
15102;SDS011;7652;53.584;9.998;2023-01-16T14:55:32;2.13;;;0.90;;
15102;SDS011;7652;53.584;9.998;2023-01-16T14:58:47;2.47;;;1.03;;
15102;SDS011;7652;53.584;9.998;2023-01-16T15:01:57;2.70;;;0.70;;
15102;SDS011;7652;53.584;9.998;2023-01-16T15:05:20;3.10;;;0.90;;
15102;SDS011;7652;53.584;9.998;2023-01-16T15:08:45;2.43;;;0.77;;
15102;SDS011;7652;53.584;9.998;2023-01-16T15:11:54;2.97;;;0.90;;
15102;SDS011;7652;53.584;9.998;2023-01-16T15:15:00;1.10;;;0.80;;
15102;SDS011;7652;53.584;9.998;2023-01-16T15:18:03;3.07;;;1.20;;
15102;SDS011;7652;53.584;9.998;2023-01-16T15:21:23;2.07;;;0.80;;
15102;SDS011;7652;53.584;9.998;2023-01-16T15:24:45;2.50;;;0.87;;
15102;SDS011;7652;53.584;9.998;2023-01-16T15:27:57;1.10;;;0.87;;
15102;SDS011;7652;53.584;9.998;2023-01-16T15:31:07;2.87;;;1.03;;
15102;SDS011;7652;53.584;9.998;2023-01-16T15:34:18;4.73;;;1.07;;
15102;SDS011;7652;53.584;9.998;2023-01-16T15:37:24;3.53;;;0.83;;
15102;SDS011;7652;53.584;9.998;2023-01-16T15:40:29;1.27;;;0.97;;
15102;SDS011;7652;53.584;9.998;2023-01-16T15:43:34;1.70;;;1.00;;
15102;SDS011;7652;53.584;9.998;2023-01-16T15:46:59;4.47;;;1.07;;
15102;SDS011;7652;53.584;9.998;2023-01-16T15:50:20;1.83;;;1.03;;
15102;SDS011;7652;53.584;9.998;2023-01-16T15:53:29;1.63;;;0.90;;
15102;SDS011;7652;53.584;9.998;2023-01-16T15:56:35;5.30;;;1.17;;
15102;SDS011;7652;53.584;9.998;2023-01-16T15:59:56;1.70;;;1.00;;
15102;SDS011;7652;53.584;9.998;2023-01-16T16:03:00;1.43;;;1.00;;
15102;SDS011;7652;53.584;9.998;2023-01-16T16:06:07;1.90;;;1.37;;
15102;SDS011;7652;53.584;9.998;2023-01-16T16:09:13;1.67;;;0.70;;
15102;SDS011;7652;53.584;9.998;2023-01-16T16:12:20;1.40;;;0.83;;
15102;SDS011;7652;53.584;9.998;2023-01-16T16:15:25;2.50;;;1.07;;
15102;SDS011;7652;53.584;9.998;2023-01-16T16:18:53;1.27;;;0.83;;
15102;SDS011;7652;53.584;9.998;2023-01-16T16:21:59;1.70;;;1.00;;
15102;SDS011;7652;53.584;9.998;2023-01-16T16:25:30;1.73;;;0.90;;
15102;SDS011;7652;53.584;9.998;2023-01-16T16:28:37;1.03;;;0.60;;
15102;SDS011;7652;53.584;9.998;2023-01-16T16:31:43;1.30;;;0.80;;
15102;SDS011;7652;53.584;9.998;2023-01-16T16:34:50;0.77;;;0.67;;
15102;SDS011;7652;53.584;9.998;2023-01-16T16:37:55;1.63;;;0.83;;
15102;SDS011;7652;53.584;9.998;2023-01-16T16:41:17;1.10;;;0.90;;
15102;SDS011;7652;53.584;9.998;2023-01-16T16:45:08;1.77;;;0.80;;
15102;SDS011;7652;53.584;9.998;2023-01-16T16:48:22;2.07;;;1.13;;
15102;SDS011;7652;53.584;9.998;2023-01-16T16:51:29;2.03;;;0.80;;
15102;SDS011;7652;53.584;9.998;2023-01-16T16:54:33;1.13;;;0.83;;
15102;SDS011;7652;53.584;9.998;2023-01-16T16:57:40;1.30;;;0.90;;
15102;SDS011;7652;53.584;9.998;2023-01-16T17:00:44;0.80;;;0.80;;
15102;SDS011;7652;53.584;9.998;2023-01-16T17:03:50;1.03;;;0.70;;
15102;SDS011;7652;53.584;9.998;2023-01-16T17:06:55;0.60;;;0.60;;
15102;SDS011;7652;53.584;9.998;2023-01-16T17:09:59;1.70;;;0.80;;
15102;SDS011;7652;53.584;9.998;2023-01-16T17:13:02;2.90;;;0.90;;
15102;SDS011;7652;53.584;9.998;2023-01-16T17:16:07;2.43;;;0.70;;
15102;SDS011;7652;53.584;9.998;2023-01-16T17:19:20;2.17;;;0.80;;
15102;SDS011;7652;53.584;9.998;2023-01-16T17:22:28;0.97;;;0.60;;
15102;SDS011;7652;53.584;9.998;2023-01-16T17:25:31;1.63;;;0.80;;
15102;SDS011;7652;53.584;9.998;2023-01-16T17:28:34;1.00;;;0.70;;
15102;SDS011;7652;53.584;9.998;2023-01-16T17:31:37;1.43;;;1.03;;
15102;SDS011;7652;53.584;9.998;2023-01-16T17:34:44;2.43;;;1.13;;
15102;SDS011;7652;53.584;9.998;2023-01-16T17:37:47;2.30;;;0.87;;
15102;SDS011;7652;53.584;9.998;2023-01-16T17:40:50;3.07;;;1.10;;
15102;SDS011;7652;53.584;9.998;2023-01-16T17:43:53;2.60;;;0.87;;
15102;SDS011;7652;53.584;9.998;2023-01-16T17:47:14;1.67;;;0.90;;
15102;SDS011;7652;53.584;9.998;2023-01-16T17:50:18;6.27;;;1.23;;
15102;SDS011;7652;53.584;9.998;2023-01-16T17:53:24;1.50;;;1.00;;
15102;SDS011;7652;53.584;9.998;2023-01-16T17:56:29;3.07;;;0.90;;
15102;SDS011;7652;53.584;9.998;2023-01-16T17:59:32;1.80;;;0.93;;
15102;SDS011;7652;53.584;9.998;2023-01-16T18:02:35;1.67;;;0.70;;
15102;SDS011;7652;53.584;9.998;2023-01-16T18:05:40;1.80;;;1.00;;
15102;SDS011;7652;53.584;9.998;2023-01-16T18:08:46;4.17;;;1.30;;
15102;SDS011;7652;53.584;9.998;2023-01-16T18:11:49;2.00;;;1.13;;
15102;SDS011;7652;53.584;9.998;2023-01-16T18:15:10;1.60;;;1.03;;
15102;SDS011;7652;53.584;9.998;2023-01-16T18:18:30;1.90;;;1.23;;
15102;SDS011;7652;53.584;9.998;2023-01-16T18:21:35;3.43;;;1.00;;
15102;SDS011;7652;53.584;9.998;2023-01-16T18:24:55;1.40;;;0.80;;
15102;SDS011;7652;53.584;9.998;2023-01-16T18:27:58;1.53;;;1.03;;
15102;SDS011;7652;53.584;9.998;2023-01-16T18:31:04;1.63;;;0.90;;
15102;SDS011;7652;53.584;9.998;2023-01-16T18:34:09;1.43;;;1.00;;
15102;SDS011;7652;53.584;9.998;2023-01-16T18:37:13;2.63;;;0.70;;
15102;SDS011;7652;53.584;9.998;2023-01-16T18:40:18;1.93;;;1.10;;
15102;SDS011;7652;53.584;9.998;2023-01-16T18:43:39;1.37;;;0.70;;
15102;SDS011;7652;53.584;9.998;2023-01-16T18:47:00;2.47;;;1.00;;
15102;SDS011;7652;53.584;9.998;2023-01-16T18:50:20;1.37;;;1.10;;
15102;SDS011;7652;53.584;9.998;2023-01-16T18:53:43;1.50;;;1.00;;
15102;SDS011;7652;53.584;9.998;2023-01-16T18:57:07;1.00;;;0.93;;
15102;SDS011;7652;53.584;9.998;2023-01-16T19:00:32;1.73;;;0.70;;
15102;SDS011;7652;53.584;9.998;2023-01-16T19:03:52;2.33;;;1.00;;
15102;SDS011;7652;53.584;9.998;2023-01-16T19:06:56;1.50;;;0.80;;
15102;SDS011;7652;53.584;9.998;2023-01-16T19:10:03;0.67;;;0.67;;
15102;SDS011;7652;53.584;9.998;2023-01-16T19:13:07;1.57;;;0.77;;
15102;SDS011;7652;53.584;9.998;2023-01-16T19:16:10;1.53;;;0.73;;
15102;SDS011;7652;53.584;9.998;2023-01-16T19:19:32;1.70;;;0.80;;
15102;SDS011;7652;53.584;9.998;2023-01-16T19:22:35;0.70;;;0.70;;
15102;SDS011;7652;53.584;9.998;2023-01-16T19:25:39;0.80;;;0.60;;
15102;SDS011;7652;53.584;9.998;2023-01-16T19:28:42;1.23;;;0.70;;